Time;durP1;ratioP1;P1;durP2;ratioP2;P2;SDS_P1;SDS_P2;PMS_P1;PMS_P2;Temp;Humidity;BMP_temperature;BMP_pressure;BME280_temperature;BME280_humidity;BME280_pressure;Samples;Min_cycle;Max_cycle;Signal;HPM_P1;HPM_P2
2024/02/21 00:02:21;;;;;;;39.65;15.15;;;;;;;7.19;100.00;101146.66;5031915;28;20568;-78
2024/02/21 00:04:54;;;;;;;38.57;15.37;;;;;;;7.28;100.00;101139.78;5048104;28;20437;-78
2024/02/21 00:07:28;;;;;;;42.40;15.77;;;;;;;7.30;100.00;101145.75;5051886;28;20426;-78
2024/02/21 00:10:02;;;;;;;37.10;14.63;;;;;;;7.27;100.00;101147.06;5036088;28;20448;-78
2024/02/21 00:12:35;;;;;;;41.03;15.55;;;;;;;7.19;100.00;101147.47;5031975;28;20429;-78
2024/02/21 00:15:03;;;;;;;43.10;16.02;;;;;;;7.18;100.00;101132.31;5054484;28;20416;-78
2024/02/21 00:17:32;;;;;;;45.05;15.40;;;;;;;7.21;100.00;101144.50;5034788;28;20798;-78
2024/02/21 00:20:06;;;;;;;35.75;14.52;;;;;;;7.28;100.00;101139.78;5031226;28;20443;-78
2024/02/21 00:22:41;;;;;;;39.90;15.10;;;;;;;7.25;100.00;101135.69;5049065;28;20428;-78
2024/02/21 00:25:09;;;;;;;39.97;14.65;;;;;;;7.18;100.00;101135.03;5051926;28;20421;-78
2024/02/21 00:27:42;;;;;;;42.70;15.50;;;;;;;7.18;100.00;101135.03;5039423;28;20428;-78
2024/02/21 00:30:16;;;;;;;40.50;15.63;;;;;;;7.13;100.00;101124.09;5039044;28;20427;-78
2024/02/21 00:32:49;;;;;;;43.55;16.30;;;;;;;7.24;100.00;101127.81;5053366;28;20928;-78
2024/02/21 00:35:22;;;;;;;41.65;15.40;;;;;;;7.22;100.00;101121.81;5051293;28;20431;-78
2024/02/21 00:37:57;;;;;;;36.72;14.80;;;;;;;7.17;100.00;101119.00;5052399;28;20895;-78
2024/02/21 00:40:30;;;;;;;37.00;15.43;;;;;;;7.19;100.00;101114.19;5037580;28;20438;-78
2024/02/21 00:43:04;;;;;;;40.53;16.00;;;;;;;7.10;100.00;101103.75;5055786;28;20435;-77
2024/02/21 00:45:32;;;;;;;39.72;15.80;;;;;;;7.10;100.00;101105.66;5054940;28;20440;-78
2024/02/21 00:48:06;;;;;;;39.75;15.75;;;;;;;7.06;100.00;101097.19;5053187;28;20427;-77
2024/02/21 00:50:39;;;;;;;42.17;15.93;;;;;;;7.03;100.00;101102.28;5052391;28;20436;-78
2024/02/21 00:53:14;;;;;;;38.42;15.98;;;;;;;7.08;100.00;101099.66;5034527;28;20427;-78
2024/02/21 00:55:43;;;;;;;38.83;15.40;;;;;;;7.13;100.00;101086.22;5039377;28;20427;-78
2024/02/21 00:58:11;;;;;;;40.38;15.82;;;;;;;7.08;100.00;101086.13;5051962;28;20934;-78
2024/02/21 01:00:39;;;;;;;42.70;15.63;;;;;;;7.02;100.00;101079.81;5053849;28;20419;-78
2024/02/21 01:03:12;;;;;;;35.00;15.35;;;;;;;6.97;100.00;101072.44;5052891;28;20427;-78
2024/02/21 01:05:46;;;;;;;41.10;15.27;;;;;;;7.03;100.00;101073.34;5033625;28;20428;-78
2024/02/21 01:08:20;;;;;;;38.55;15.25;;;;;;;7.03;100.00;101076.03;5053001;28;20915;-78
2024/02/21 01:10:53;;;;;;;40.77;15.03;;;;;;;7.02;100.00;101074.41;5034849;28;20427;-78
2024/02/21 01:13:21;;;;;;;35.17;15.48;;;;;;;7.05;100.00;101063.06;5051539;28;20759;-78
2024/02/21 01:15:55;;;;;;;39.08;16.25;;;;;;;7.07;100.00;101069.06;5054974;28;20446;-78
2024/02/21 01:18:23;;;;;;;35.60;15.50;;;;;;;7.06;100.00;101063.91;5039281;28;20426;-78
2024/02/21 01:20:56;;;;;;;39.22;15.32;;;;;;;7.00;100.00;101056.78;5051266;28;20414;-78
2024/02/21 01:23:31;;;;;;;34.50;15.88;;;;;;;6.97;100.00;101058.06;5034458;28;20429;-78
2024/02/21 01:26:04;;;;;;;36.05;15.40;;;;;;;7.06;100.00;101051.19;5052997;28;20991;-78
2024/02/21 01:28:38;;;;;;;38.92;15.52;;;;;;;6.99;100.00;101037.03;5049531;28;20420;-78
2024/02/21 01:31:12;;;;;;;42.55;16.80;;;;;;;7.05;100.00;101043.31;5051643;28;20428;-78
2024/02/21 01:33:46;;;;;;;40.22;16.25;;;;;;;7.03;100.00;101046.28;5036424;28;20425;-78
2024/02/21 01:36:19;;;;;;;39.28;16.38;;;;;;;7.06;100.00;101045.78;5051855;28;20444;-77
2024/02/21 01:38:53;;;;;;;39.60;15.60;;;;;;;6.96;100.00;101037.50;5036708;28;20425;-78
2024/02/21 01:41:27;;;;;;;41.90;16.42;;;;;;;7.03;100.00;101030.03;5049447;28;20425;-78
2024/02/21 01:44:00;;;;;;;38.10;16.85;;;;;;;7.04;100.00;101030.84;5049632;28;20429;-78
2024/02/21 01:46:33;;;;;;;40.70;16.90;;;;;;;7.03;100.00;101024.63;5035651;28;20484;-78
2024/02/21 01:49:02;;;;;;;38.83;17.02;;;;;;;7.06;100.00;101031.44;5047463;28;20432;-78
2024/02/21 01:51:36;;;;;;;42.13;16.70;;;;;;;7.01;100.00;101018.63;5052219;28;20429;-78
2024/02/21 01:54:06;;;;;;;41.50;16.05;;;;;;;7.02;100.00;101022.97;5032081;28;20429;-78
2024/02/21 01:56:39;;;;;;;43.65;16.85;;;;;;;7.09;100.00;101006.59;5051767;28;20925;-78
2024/02/21 01:59:14;;;;;;;42.33;17.17;;;;;;;7.06;100.00;101010.59;5050932;28;20888;-78
2024/02/21 02:01:47;;;;;;;43.58;17.00;;;;;;;7.02;100.00;101005.94;5056249;28;20429;-78
2024/02/21 02:04:21;;;;;;;44.15;17.63;;;;;;;7.06;100.00;100999.78;5049793;28;20433;-78
2024/02/21 02:06:55;;;;;;;38.38;16.85;;;;;;;7.02;100.00;100997.81;5033704;28;20434;-78
2024/02/21 02:09:30;;;;;;;37.47;17.00;;;;;;;7.05;100.00;100987.31;5052479;28;20442;-78
2024/02/21 02:12:03;;;;;;;39.40;16.77;;;;;;;7.11;100.00;100972.78;5054918;28;20438;-78
2024/02/21 02:14:32;;;;;;;40.97;16.65;;;;;;;6.98;100.00;100973.94;5048432;28;20436;-78
2024/02/21 02:17:05;;;;;;;41.03;17.33;;;;;;;6.95;100.00;100982.56;5052527;28;20496;-78
2024/02/21 02:19:38;;;;;;;45.58;17.50;;;;;;;7.03;100.00;100965.09;5054971;28;20472;-78
2024/02/21 02:22:23;;;;;;;45.33;17.67;;;;;;;7.02;100.00;100954.53;5053739;28;20436;-77
2024/02/21 02:24:52;;;;;;;42.53;17.40;;;;;;;6.98;100.00;100952.28;5058853;28;20413;-78
2024/02/21 02:27:22;;;;;;;38.90;16.67;;;;;;;6.97;100.00;100952.53;5038065;28;20431;-77
2024/02/21 02:29:55;;;;;;;39.83;16.10;;;;;;;6.96;100.00;100942.78;5050504;28;20427;-78
2024/02/21 02:32:29;;;;;;;39.53;16.13;;;;;;;6.98;100.00;100936.06;5052518;28;21037;-78
2024/02/21 02:35:02;;;;;;;40.45;16.00;;;;;;;7.06;100.00;100926.69;5053901;28;20421;-78
2024/02/21 02:37:30;;;;;;;37.95;16.33;;;;;;;7.03;100.00;100916.38;5030724;28;20431;-78
2024/02/21 02:40:06;;;;;;;39.07;15.23;;;;;;;6.99;100.00;100904.44;5050844;28;20585;-78
2024/02/21 02:42:39;;;;;;;38.78;16.13;;;;;;;6.95;100.00;100892.47;5048579;28;20421;-78
2024/02/21 02:45:12;;;;;;;39.17;15.77;;;;;;;6.94;100.00;100866.47;5052857;28;20423;-78
2024/02/21 02:47:45;;;;;;;34.70;15.07;;;;;;;6.97;100.00;100852.44;5052318;28;20416;-77
2024/02/21 02:50:19;;;;;;;39.03;16.73;;;;;;;6.92;100.00;100819.94;5037086;28;20475;-77
2024/02/21 02:52:52;;;;;;;42.88;16.65;;;;;;;6.89;100.00;100821.25;5036062;28;20429;-78
2024/02/21 02:55:22;;;;;;;42.45;16.88;;;;;;;6.85;100.00;100814.69;5054406;28;20418;-78
2024/02/21 02:57:55;;;;;;;39.97;16.77;;;;;;;6.91;100.00;100805.56;5048735;28;20436;-77
2024/02/21 03:00:28;;;;;;;42.33;16.85;;;;;;;6.96;100.00;100834.56;5037844;28;20443;-78
2024/02/21 03:03:03;;;;;;;39.42;17.52;;;;;;;6.88;100.00;100851.25;5053438;28;20425;-78
2024/02/21 03:05:36;;;;;;;43.28;17.30;;;;;;;6.91;100.00;100875.91;5035776;28;20441;-78
2024/02/21 03:08:06;;;;;;;37.78;17.15;;;;;;;6.96;100.00;100875.13;5044922;28;20425;-78
2024/02/21 03:10:42;;;;;;;39.28;17.20;;;;;;;7.03;100.00;100875.81;5048958;28;20432;-78
2024/02/21 03:13:10;;;;;;;45.80;17.67;;;;;;;7.02;100.00;100873.34;5033586;28;20935;-77
2024/02/21 03:15:38;;;;;;;42.55;17.85;;;;;;;7.02;100.00;100868.75;5033419;28;20432;-78
2024/02/21 03:18:11;;;;;;;40.33;17.73;;;;;;;7.07;100.00;100870.69;5051857;28;20424;-78
2024/02/21 03:20:40;;;;;;;41.97;17.50;;;;;;;7.03;100.00;100866.84;5044700;28;20924;-77
2024/02/21 03:23:13;;;;;;;45.50;18.63;;;;;;;7.09;100.00;100855.84;5035290;28;20976;-78
2024/02/21 03:25:47;;;;;;;47.08;18.60;;;;;;;7.05;100.00;100843.06;5049338;28;20433;-78
2024/02/21 03:28:21;;;;;;;41.53;18.35;;;;;;;7.02;100.00;100857.13;5036451;28;20423;-78
2024/02/21 03:30:49;;;;;;;50.70;18.63;;;;;;;7.06;100.00;100859.06;5030402;28;20449;-78
2024/02/21 03:33:23;;;;;;;41.70;18.50;;;;;;;7.06;100.00;100858.25;5030789;28;20432;-78
2024/02/21 03:35:56;;;;;;;40.30;18.42;;;;;;;7.15;100.00;100854.84;5050019;28;20430;-78
2024/02/21 03:38:30;;;;;;;42.80;18.60;;;;;;;7.18;100.00;100863.50;5034749;28;20444;-77
2024/02/21 03:41:05;;;;;;;42.40;18.10;;;;;;;7.13;100.00;100861.56;5030784;28;20604;-78
2024/02/21 03:43:38;;;;;;;42.38;17.67;;;;;;;7.18;100.00;100866.22;5036302;28;20431;-78
2024/02/21 03:46:11;;;;;;;47.45;19.38;;;;;;;7.19;100.00;100873.28;5048840;28;20435;-78
2024/02/21 03:48:45;;;;;;;44.85;18.83;;;;;;;7.20;100.00;100880.34;5049518;28;20421;-77
2024/02/21 03:51:18;;;;;;;45.60;19.80;;;;;;;7.22;100.00;100873.59;5032421;28;20436;-77
2024/02/21 03:53:52;;;;;;;44.40;18.58;;;;;;;7.22;100.00;100870.91;5049079;28;20435;-78
2024/02/21 03:56:26;;;;;;;44.25;18.85;;;;;;;7.31;100.00;100865.84;5045081;28;20435;-78
2024/02/21 03:58:59;;;;;;;48.95;19.75;;;;;;;7.23;100.00;100874.41;5035596;28;20437;-78
2024/02/21 04:01:27;;;;;;;42.70;18.40;;;;;;;7.33;100.00;100882.63;5037658;28;20469;-78
2024/02/21 04:04:01;;;;;;;45.47;18.83;;;;;;;7.30;100.00;100875.03;5048967;28;20421;-78
2024/02/21 04:06:35;;;;;;;45.70;19.25;;;;;;;7.28;100.00;100869.88;5055255;28;20432;-78
2024/02/21 04:09:03;;;;;;;44.92;18.80;;;;;;;7.30;100.00;100864.19;5036228;28;20796;-78
2024/02/21 04:11:37;;;;;;;42.83;19.00;;;;;;;7.27;100.00;100862.00;5054276;28;20420;-78
2024/02/21 04:14:06;;;;;;;42.90;18.85;;;;;;;7.29;100.00;100844.44;5050789;28;20423;-78
2024/02/21 04:16:35;;;;;;;45.10;18.53;;;;;;;7.28;100.00;100852.81;5053323;28;20504;-78
2024/02/21 04:19:09;;;;;;;43.22;19.00;;;;;;;7.31;100.00;100849.59;5037027;28;20487;-77
2024/02/21 04:21:42;;;;;;;45.03;18.33;;;;;;;7.33;100.00;100847.44;5051914;28;20421;-78
2024/02/21 04:24:10;;;;;;;47.87;19.00;;;;;;;7.23;100.00;100833.81;5037386;28;20425;-78
2024/02/21 04:26:45;;;;;;;47.53;18.35;;;;;;;7.24;100.00;100838.16;5053061;28;20436;-78
2024/02/21 04:29:13;;;;;;;44.03;17.95;;;;;;;7.25;100.00;100816.25;5053527;28;20492;-78
2024/02/21 04:31:41;;;;;;;43.15;18.65;;;;;;;7.27;100.00;100818.69;5043453;28;20432;-78
2024/02/21 04:34:10;;;;;;;39.40;18.23;;;;;;;7.25;100.00;100813.53;5034898;28;21015;-78
2024/02/21 04:36:43;;;;;;;43.20;17.55;;;;;;;7.27;100.00;100813.28;5053741;28;20428;-78
2024/02/21 04:39:16;;;;;;;42.00;17.10;;;;;;;7.29;100.00;100814.66;5032693;28;20439;-78
2024/02/21 04:41:51;;;;;;;43.45;17.83;;;;;;;7.27;100.00;100810.56;5053473;28;20419;-78
2024/02/21 04:44:22;;;;;;;39.55;17.05;;;;;;;7.14;100.00;100800.97;5052119;28;20417;-78
2024/02/21 04:46:55;;;;;;;43.72;17.30;;;;;;;7.15;100.00;100805.28;5032728;28;20920;-78
2024/02/21 04:49:23;;;;;;;44.63;17.35;;;;;;;7.11;100.00;100804.16;5051768;28;20407;-78
2024/02/21 04:51:56;;;;;;;39.80;17.70;;;;;;;7.16;100.00;100817.75;5040149;28;20921;-78
2024/02/21 04:54:30;;;;;;;43.15;17.58;;;;;;;7.12;100.00;100809.31;5052178;28;20429;-78
2024/02/21 04:57:05;;;;;;;41.42;17.65;;;;;;;7.15;100.00;100808.84;5032868;28;20440;-78
2024/02/21 04:59:38;;;;;;;36.95;17.17;;;;;;;7.12;100.00;100811.22;5051196;28;20428;-78
2024/02/21 05:02:06;;;;;;;42.33;17.13;;;;;;;7.21;100.00;100819.69;5050876;28;20431;-77
2024/02/21 05:04:36;;;;;;;41.83;17.42;;;;;;;7.23;100.00;100815.66;5052558;28;20426;-78
2024/02/21 05:07:11;;;;;;;37.90;16.50;;;;;;;7.18;100.00;100817.50;5053091;28;20440;-77
2024/02/21 05:09:39;;;;;;;38.92;16.45;;;;;;;7.16;100.00;100806.94;5051227;28;20418;-78
2024/02/21 05:12:09;;;;;;;40.72;16.88;;;;;;;7.12;100.00;100812.03;5050013;28;20455;-78
2024/02/21 05:14:43;;;;;;;40.17;17.33;;;;;;;7.08;100.00;100815.50;5036219;28;20420;-78
2024/02/21 05:17:11;;;;;;;37.85;16.48;;;;;;;7.15;100.00;100814.25;5049565;28;20428;-78
2024/02/21 05:19:44;;;;;;;35.30;15.88;;;;;;;7.12;100.00;100820.13;5050023;28;20425;-78
2024/02/21 05:22:17;;;;;;;39.60;15.77;;;;;;;7.07;100.00;100825.50;5051797;28;20429;-78
2024/02/21 05:24:45;;;;;;;34.83;16.25;;;;;;;7.03;100.00;100818.13;5034208;28;20433;-78
2024/02/21 05:27:20;;;;;;;37.05;15.52;;;;;;;6.99;100.00;100812.44;5053574;28;20422;-78
2024/02/21 05:29:54;;;;;;;39.25;15.27;;;;;;;7.01;100.00;100812.97;5052503;28;20898;-78
2024/02/21 05:32:27;;;;;;;35.10;15.50;;;;;;;6.93;100.00;100816.97;5034700;28;20430;-77
2024/02/21 05:35:01;;;;;;;32.25;14.35;;;;;;;6.97;100.00;100801.84;5049180;28;22759;-78
2024/02/21 05:37:34;;;;;;;35.55;15.25;;;;;;;6.98;100.00;100816.19;5054125;28;20781;-78
2024/02/21 05:40:08;;;;;;;31.65;14.15;;;;;;;7.00;100.00;100811.34;5051390;28;20502;-77
2024/02/21 05:42:38;;;;;;;31.33;14.10;;;;;;;7.02;100.00;100811.09;5042135;28;20448;-78
2024/02/21 05:45:07;;;;;;;32.27;14.30;;;;;;;6.98;100.00;100810.78;5032749;28;20444;-77
2024/02/21 05:47:35;;;;;;;34.28;13.50;;;;;;;7.03;100.00;100804.59;5049980;28;21363;-78
2024/02/21 05:50:09;;;;;;;31.42;13.55;;;;;;;7.00;100.00;100805.94;5039800;28;20430;-78
2024/02/21 05:52:42;;;;;;;27.50;13.93;;;;;;;6.94;100.00;100805.06;5051066;28;20433;-78
2024/02/21 05:55:16;;;;;;;29.20;12.97;;;;;;;6.92;100.00;100811.81;5036394;28;20429;-77
2024/02/21 05:57:45;;;;;;;31.05;13.02;;;;;;;6.97;100.00;100795.63;5047243;28;20433;-78
2024/02/21 06:00:19;;;;;;;29.48;12.82;;;;;;;6.97;100.00;100793.75;5034975;28;20438;-78
2024/02/21 06:02:52;;;;;;;26.63;12.70;;;;;;;7.05;100.00;100799.78;5028025;28;20424;-78
2024/02/21 06:05:20;;;;;;;24.08;11.63;;;;;;;7.10;100.00;100805.25;5049260;28;20415;-78
2024/02/21 06:07:53;;;;;;;27.10;11.40;;;;;;;7.20;100.00;100804.53;5051994;28;20529;-78
2024/02/21 06:10:27;;;;;;;26.38;11.43;;;;;;;7.07;100.00;100803.03;5051053;28;20432;-78
2024/02/21 06:13:01;;;;;;;29.08;12.13;;;;;;;7.11;100.00;100802.28;5033897;28;20809;-78
2024/02/21 06:15:29;;;;;;;25.95;11.63;;;;;;;7.04;100.00;100801.66;5033498;28;21370;-78
2024/02/21 06:18:03;;;;;;;24.13;11.38;;;;;;;7.04;100.00;100814.38;5053512;28;20436;-78
2024/02/21 06:20:39;;;;;;;23.90;10.95;;;;;;;7.06;100.00;100810.34;5039572;28;20422;-78
2024/02/21 06:23:07;;;;;;;25.38;11.63;;;;;;;7.05;100.00;100810.59;5039941;28;20423;-78
2024/02/21 06:25:40;;;;;;;23.10;10.85;;;;;;;7.06;100.00;100815.75;5049215;28;20428;-78
2024/02/21 06:28:10;;;;;;;21.80;10.25;;;;;;;7.12;100.00;100817.44;5033812;28;20434;-79
2024/02/21 06:30:39;;;;;;;21.00;10.60;;;;;;;7.05;100.00;100819.53;5031891;28;20436;-78
2024/02/21 06:33:12;;;;;;;22.55;10.90;;;;;;;7.03;100.00;100815.44;5032459;28;20435;-78
2024/02/21 06:35:47;;;;;;;22.25;10.50;;;;;;;7.03;100.00;100816.25;5049720;28;20437;-78
2024/02/21 06:38:20;;;;;;;22.08;10.52;;;;;;;7.08;100.00;100819.00;5037823;28;20422;-78
2024/02/21 06:40:51;;;;;;;20.38;8.98;;;;;;;7.12;100.00;100822.84;5050734;28;20432;-78
2024/02/21 06:43:26;;;;;;;20.52;9.02;;;;;;;7.12;100.00;100816.63;5032424;28;20435;-78
2024/02/21 06:45:59;;;;;;;20.08;9.40;;;;;;;7.06;100.00;100821.16;5049897;28;20820;-78
2024/02/21 06:48:32;;;;;;;19.15;9.05;;;;;;;7.13;100.00;100829.09;5050375;28;20434;-78
2024/02/21 06:51:05;;;;;;;19.35;8.57;;;;;;;7.14;100.00;100823.44;5030388;28;20425;-78
2024/02/21 06:56:31;;;;;;;20.63;8.23;;;;;;;7.15;100.00;100822.34;5028976;28;20421;-78
2024/02/21 06:59:10;;;;;;;16.60;7.95;;;;;;;7.22;100.00;100830.28;5047737;28;20432;-78
2024/02/21 07:01:46;;;;;;;18.05;8.30;;;;;;;7.17;100.00;100827.50;5047959;28;20428;-78
2024/02/21 07:04:14;;;;;;;17.83;7.47;;;;;;;7.15;100.00;100843.19;5053679;28;20413;-79
2024/02/21 07:06:47;;;;;;;16.75;7.20;;;;;;;7.22;100.00;100841.13;5031694;28;20779;-78
2024/02/21 07:09:31;;;;;;;17.88;7.65;;;;;;;7.21;100.00;100836.78;5032487;28;20431;-78
2024/02/21 07:12:00;;;;;;;13.73;6.57;;;;;;;7.27;100.00;100830.31;5048901;28;20474;-78
2024/02/21 07:14:34;;;;;;;14.88;6.80;;;;;;;7.22;100.00;100833.00;5035557;28;20435;-78
2024/02/21 07:17:08;;;;;;;12.57;6.28;;;;;;;7.28;100.00;100831.16;5048576;28;20442;-78
2024/02/21 07:19:36;;;;;;;12.32;6.22;;;;;;;7.20;100.00;100832.41;5033428;28;20432;-78
2024/02/21 07:22:04;;;;;;;12.63;6.00;;;;;;;7.31;100.00;100836.88;5028717;28;20426;-78
2024/02/21 07:24:38;;;;;;;11.13;6.10;;;;;;;7.33;100.00;100842.03;5035832;28;20427;-78
2024/02/21 07:27:11;;;;;;;11.23;6.05;;;;;;;7.40;100.00;100836.41;5030844;28;20436;-78
2024/02/21 07:29:48;;;;;;;11.45;6.30;;;;;;;7.32;100.00;100832.28;5050572;28;20432;-78
2024/02/21 07:32:21;;;;;;;11.07;6.22;;;;;;;7.49;100.00;100834.91;5029666;28;21129;-78
2024/02/21 07:34:55;;;;;;;11.18;5.75;;;;;;;7.40;100.00;100847.25;5035374;28;20436;-79
2024/02/21 07:37:28;;;;;;;10.40;5.97;;;;;;;7.39;100.00;100838.31;5046887;28;20427;-78
2024/02/21 07:39:56;;;;;;;11.50;5.85;;;;;;;7.41;100.00;100843.47;5050053;28;20416;-78
2024/02/21 07:42:24;;;;;;;11.05;6.30;;;;;;;7.44;100.00;100846.50;5047204;28;20427;-78
2024/02/21 07:44:59;;;;;;;11.20;6.40;;;;;;;7.49;100.00;100851.94;5050153;28;20442;-78
2024/02/21 07:47:29;;;;;;;10.30;6.03;;;;;;;7.45;100.00;100840.00;5034203;28;20512;-78
2024/02/21 07:50:02;;;;;;;10.60;6.10;;;;;;;7.41;100.00;100844.28;5031257;28;20424;-78
2024/02/21 07:52:35;;;;;;;10.20;5.82;;;;;;;7.45;100.00;100844.59;5047884;28;20447;-78
2024/02/21 07:55:04;;;;;;;10.82;5.30;;;;;;;7.39;100.00;100848.31;5033711;28;21335;-78
2024/02/21 07:57:37;;;;;;;9.48;5.20;;;;;;;7.51;100.00;100859.00;5051331;28;20771;-78
2024/02/21 08:00:19;;;;;;;9.00;5.00;;;;;;;7.44;100.00;100853.78;5036461;28;20446;-77
2024/02/21 08:02:47;;;;;;;8.53;4.73;;;;;;;7.48;100.00;100849.50;5035555;28;20425;-78
2024/02/21 08:05:21;;;;;;;9.73;5.10;;;;;;;7.47;100.00;100848.69;5030966;28;20440;-77
2024/02/21 08:07:54;;;;;;;11.15;5.20;;;;;;;7.48;100.00;100842.22;5032218;28;20423;-78
2024/02/21 08:10:27;;;;;;;9.93;4.82;;;;;;;7.44;100.00;100840.25;5032210;28;20439;-78
2024/02/21 08:13:01;;;;;;;8.90;4.40;;;;;;;7.48;100.00;100836.78;5050015;28;20417;-78
2024/02/21 08:15:35;;;;;;;11.18;4.90;;;;;;;7.48;100.00;100836.78;5045796;28;20429;-78
2024/02/21 08:18:08;;;;;;;9.88;4.97;;;;;;;7.54;100.00;100832.25;5050158;28;21193;-79
2024/02/21 08:20:42;;;;;;;10.68;5.30;;;;;;;7.43;100.00;100834.03;5027064;28;20421;-78
2024/02/21 08:23:16;;;;;;;11.70;5.37;;;;;;;7.46;100.00;100830.81;5042948;28;20430;-78
2024/02/21 08:25:49;;;;;;;10.97;5.57;;;;;;;7.48;100.00;100825.97;5046586;28;21136;-78
2024/02/21 08:28:23;;;;;;;12.20;5.88;;;;;;;7.46;100.00;100833.50;5046935;28;20787;-78
2024/02/21 08:30:57;;;;;;;13.43;6.45;;;;;;;7.54;100.00;100826.00;5023864;28;20428;-78
2024/02/21 08:33:25;;;;;;;11.40;5.90;;;;;;;7.61;100.00;100819.31;5046504;28;20433;-78
2024/02/21 08:35:54;;;;;;;11.82;5.68;;;;;;;7.51;100.00;100821.09;5048244;28;20428;-78
2024/02/21 08:38:27;;;;;;;14.23;7.68;;;;;;;7.63;100.00;100819.84;5035243;28;22364;-77
2024/02/21 08:41:00;;;;;;;10.82;5.40;;;;;;;7.55;100.00;100819.50;5039399;28;20427;-78
2024/02/21 08:43:30;;;;;;;10.27;5.38;;;;;;;7.54;100.00;100823.28;5020826;28;20448;-78
2024/02/21 08:46:06;;;;;;;11.38;6.05;;;;;;;7.55;100.00;100823.03;5041616;28;20421;-78
2024/02/21 08:48:34;;;;;;;10.95;5.78;;;;;;;7.64;100.00;100820.69;5027243;28;20430;-78
2024/02/21 08:51:07;;;;;;;9.75;5.13;;;;;;;7.76;100.00;100813.22;5040532;28;21917;-78
2024/02/21 08:53:40;;;;;;;11.68;4.93;;;;;;;7.90;100.00;100812.78;5033299;28;20419;-79
2024/02/21 08:56:09;;;;;;;7.78;4.00;;;;;;;7.93;100.00;100812.28;5040751;28;20421;-78
2024/02/21 08:58:42;;;;;;;8.10;4.15;;;;;;;8.06;100.00;100811.00;5036406;28;20440;-78
2024/02/21 09:01:16;;;;;;;8.20;4.30;;;;;;;7.92;100.00;100811.44;5032505;28;22486;-78
2024/02/21 09:03:53;;;;;;;10.47;4.70;;;;;;;7.83;100.00;100813.00;5034807;28;21957;-78
2024/02/21 09:06:28;;;;;;;9.80;4.10;;;;;;;7.77;100.00;100808.59;5019535;28;21321;-79
2024/02/21 09:09:01;;;;;;;8.15;3.80;;;;;;;7.77;100.00;100817.53;5016820;28;20431;-78
2024/02/21 09:11:29;;;;;;;7.55;3.53;;;;;;;7.71;100.00;100813.16;5033873;28;20438;-78
2024/02/21 09:13:57;;;;;;;9.03;4.50;;;;;;;7.75;100.00;100818.91;5035339;28;20416;-78
2024/02/21 09:16:33;;;;;;;8.05;3.20;;;;;;;7.95;100.00;100818.25;5015679;28;20772;-78
2024/02/21 09:19:01;;;;;;;5.57;2.95;;;;;;;7.96;100.00;100828.00;5013563;28;20433;-78
2024/02/21 09:21:34;;;;;;;6.38;3.20;;;;;;;8.15;100.00;100836.56;5024096;28;20431;-78
2024/02/21 09:24:03;;;;;;;6.87;3.03;;;;;;;8.04;100.00;100829.41;5016298;28;20423;-78
2024/02/21 09:26:36;;;;;;;8.38;3.05;;;;;;;8.06;100.00;100825.38;4991504;28;20431;-79
2024/02/21 09:29:09;;;;;;;8.18;3.20;;;;;;;8.01;100.00;100819.94;5014522;28;21533;-79
2024/02/21 09:31:44;;;;;;;9.88;3.47;;;;;;;8.26;100.00;100819.28;5014576;28;20436;-79
2024/02/21 09:34:17;;;;;;;9.00;3.33;;;;;;;8.09;100.00;100824.03;5013859;28;20520;-78
2024/02/21 09:36:50;;;;;;;9.40;3.58;;;;;;;8.18;100.00;100833.31;5019034;28;21590;-78
2024/02/21 09:39:20;;;;;;;8.40;3.13;;;;;;;8.24;100.00;100829.56;5031756;28;20419;-78
2024/02/21 09:42:08;;;;;;;16.58;4.00;;;;;;;8.35;100.00;100827.75;5010853;28;20428;-79
2024/02/21 09:44:43;;;;;;;14.68;3.85;;;;;;;8.36;100.00;100812.31;5014759;28;20420;-78
2024/02/21 09:47:26;;;;;;;11.32;3.30;;;;;;;8.40;100.00;100814.22;5022614;28;21962;-78
2024/02/21 09:50:02;;;;;;;9.98;3.05;;;;;;;8.46;100.00;100820.53;5031516;28;20496;-78
2024/02/21 09:52:37;;;;;;;11.65;3.20;;;;;;;8.40;100.00;100813.41;5017623;28;20430;-78
2024/02/21 09:55:17;;;;;;;9.75;3.15;;;;;;;8.30;100.00;100831.25;5022781;28;20419;-78
2024/02/21 09:57:52;;;;;;;15.55;3.40;;;;;;;8.28;100.00;100825.25;5011704;28;20482;-79
2024/02/21 10:00:22;;;;;;;12.20;3.20;;;;;;;8.11;100.00;100822.69;5018710;28;20434;-78
2024/02/21 10:03:07;;;;;;;14.98;3.75;;;;;;;8.25;100.00;100819.56;5011913;28;20427;-78
2024/02/21 10:05:36;;;;;;;13.07;3.20;;;;;;;8.26;100.00;100816.56;5019193;28;20433;-78
2024/02/21 10:08:05;;;;;;;15.60;3.55;;;;;;;8.18;100.00;100820.56;5034188;28;21244;-78
2024/02/21 10:10:43;;;;;;;12.97;2.80;;;;;;;8.12;100.00;100815.38;5014322;28;20433;-78
2024/02/21 10:13:25;;;;;;;18.60;3.28;;;;;;;8.11;100.00;100816.47;5009230;28;20439;-79
2024/02/21 10:16:03;;;;;;;14.18;2.80;;;;;;;8.28;100.00;100814.41;5021965;28;20431;-78
2024/02/21 10:18:38;;;;;;;14.23;2.85;;;;;;;8.37;100.00;100819.34;5032154;28;20804;-78
2024/02/21 10:21:11;;;;;;;11.60;2.73;;;;;;;8.41;100.00;100820.44;5014739;28;20432;-78
2024/02/21 10:23:44;;;;;;;12.15;3.20;;;;;;;8.33;100.00;100824.50;5013969;28;21080;-78
2024/02/21 10:26:12;;;;;;;13.30;3.08;;;;;;;8.20;100.00;100827.63;5036500;28;20423;-79
2024/02/21 10:28:47;;;;;;;10.30;3.10;;;;;;;8.08;100.00;100817.81;5035741;28;20433;-78
2024/02/21 10:31:24;;;;;;;15.02;3.10;;;;;;;8.19;100.00;100818.69;5028396;28;20451;-78
2024/02/21 10:34:02;;;;;;;12.65;3.60;;;;;;;8.31;100.00;100811.19;5032814;28;20424;-78
2024/02/21 10:36:30;;;;;;;10.57;3.05;;;;;;;8.13;100.00;100815.16;5013125;28;20427;-78
2024/02/21 10:38:59;;;;;;;11.27;2.90;;;;;;;8.17;100.00;100818.13;5030668;28;20439;-78
2024/02/21 10:41:33;;;;;;;11.90;3.30;;;;;;;8.11;100.00;100809.16;5013951;28;20420;-78
2024/02/21 10:44:09;;;;;;;10.95;2.80;;;;;;;8.23;100.00;100808.13;5007432;28;20440;-78
2024/02/21 10:46:39;;;;;;;10.50;2.70;;;;;;;8.33;100.00;100805.50;5035784;28;20427;-79
2024/02/21 10:49:13;;;;;;;8.88;2.60;;;;;;;8.07;100.00;100802.63;5032762;28;20451;-79
2024/02/21 10:51:44;;;;;;;8.20;2.38;;;;;;;8.16;100.00;100805.66;5019447;28;20428;-79
2024/02/21 10:54:25;;;;;;;10.32;2.50;;;;;;;8.04;100.00;100795.00;5029329;28;20428;-79
2024/02/21 10:57:01;;;;;;;7.57;2.73;;;;;;;8.03;100.00;100795.28;5005889;28;20424;-79
2024/02/21 10:59:35;;;;;;;7.82;2.95;;;;;;;8.03;100.00;100793.38;5015829;28;20437;-79
2024/02/21 11:02:04;;;;;;;7.22;2.97;;;;;;;8.00;100.00;100783.06;5013752;28;20435;-79
2024/02/21 11:04:41;;;;;;;8.45;3.95;;;;;;;8.05;100.00;100780.38;5035795;28;20419;-79
2024/02/21 11:07:15;;;;;;;9.45;4.75;;;;;;;7.99;100.00;100778.69;5034405;28;20430;-79
2024/02/21 11:09:52;;;;;;;11.32;5.18;;;;;;;8.02;100.00;100763.81;5033498;28;20431;-79
2024/02/21 11:12:27;;;;;;;10.10;5.03;;;;;;;7.99;100.00;100776.00;5013248;28;20431;-79
2024/02/21 11:15:07;;;;;;;11.52;5.60;;;;;;;8.02;100.00;100766.53;5013401;28;20431;-79
2024/02/21 11:17:35;;;;;;;12.30;6.20;;;;;;;7.94;100.00;100756.97;5015966;28;20437;-79
2024/02/21 11:20:13;;;;;;;14.48;7.63;;;;;;;8.00;100.00;100761.38;5033045;28;21053;-79
2024/02/21 11:22:48;;;;;;;18.08;8.40;;;;;;;7.97;100.00;100754.56;5033102;28;20431;-79
2024/02/21 11:25:22;;;;;;;20.00;8.85;;;;;;;8.09;100.00;100757.09;5015145;28;21080;-79
2024/02/21 11:28:01;;;;;;;21.13;9.63;;;;;;;8.07;100.00;100742.19;5029018;28;20430;-79
2024/02/21 11:30:37;;;;;;;21.42;9.35;;;;;;;8.12;100.00;100753.03;5011150;28;20435;-82
2024/02/21 11:33:13;;;;;;;19.15;9.30;;;;;;;8.06;100.00;100754.91;5030843;28;20514;-80
2024/02/21 11:35:47;;;;;;;26.63;11.23;;;;;;;8.09;100.00;100729.16;5030096;28;21771;-79
2024/02/21 11:38:25;;;;;;;21.77;10.40;;;;;;;8.20;100.00;100735.47;5025938;28;20435;-79
2024/02/21 11:40:59;;;;;;;23.77;11.15;;;;;;;8.20;100.00;100741.69;5012113;28;20430;-79
2024/02/21 11:43:32;;;;;;;25.65;10.48;;;;;;;8.05;100.00;100734.31;4991946;28;20452;-79